sensor_id;sensor_type;location;lat;lon;timestamp;temperature;humidity
56725;DHT22;42608;52.776;6.968;2023-06-14T00:00:51;17.60;70.10
56725;DHT22;42608;52.776;6.968;2023-06-14T00:03:18;17.40;70.40
56725;DHT22;42608;52.776;6.968;2023-06-14T00:05:45;17.40;70.70
56725;DHT22;42608;52.776;6.968;2023-06-14T00:08:12;17.30;71.20
56725;DHT22;42608;52.776;6.968;2023-06-14T00:10:37;17.30;71.50
56725;DHT22;42608;52.776;6.968;2023-06-14T00:13:04;17.20;71.80
56725;DHT22;42608;52.776;6.968;2023-06-14T00:15:33;17.20;72.20
56725;DHT22;42608;52.776;6.968;2023-06-14T00:17:59;17.10;72.50
56725;DHT22;42608;52.776;6.968;2023-06-14T00:20:26;17.10;72.70
56725;DHT22;42608;52.776;6.968;2023-06-14T00:22:53;17.00;73.00
56725;DHT22;42608;52.776;6.968;2023-06-14T00:25:22;16.90;73.40
56725;DHT22;42608;52.776;6.968;2023-06-14T00:27:47;16.90;73.60
56725;DHT22;42608;52.776;6.968;2023-06-14T00:30:13;16.90;74.10
56725;DHT22;42608;52.776;6.968;2023-06-14T00:32:39;16.80;74.30
56725;DHT22;42608;52.776;6.968;2023-06-14T00:35:05;16.80;74.90
56725;DHT22;42608;52.776;6.968;2023-06-14T00:37:31;16.70;75.40
56725;DHT22;42608;52.776;6.968;2023-06-14T00:39:56;16.70;75.90
56725;DHT22;42608;52.776;6.968;2023-06-14T00:42:26;16.70;76.20
56725;DHT22;42608;52.776;6.968;2023-06-14T00:44:52;16.60;76.60
56725;DHT22;42608;52.776;6.968;2023-06-14T00:47:18;16.60;77.20
56725;DHT22;42608;52.776;6.968;2023-06-14T00:49:55;16.60;77.50
56725;DHT22;42608;52.776;6.968;2023-06-14T00:52:22;16.60;77.90
56725;DHT22;42608;52.776;6.968;2023-06-14T00:54:52;16.60;78.40
56725;DHT22;42608;52.776;6.968;2023-06-14T00:57:19;16.50;79.00
56725;DHT22;42608;52.776;6.968;2023-06-14T00:59:48;16.50;79.70
56725;DHT22;42608;52.776;6.968;2023-06-14T01:02:14;16.50;80.40
56725;DHT22;42608;52.776;6.968;2023-06-14T01:04:46;16.50;80.80
56725;DHT22;42608;52.776;6.968;2023-06-14T01:15:28;16.30;84.40
56725;DHT22;42608;52.776;6.968;2023-06-14T01:17:55;16.30;85.40
56725;DHT22;42608;52.776;6.968;2023-06-14T01:20:29;16.20;86.10
56725;DHT22;42608;52.776;6.968;2023-06-14T01:22:55;16.20;87.20
56725;DHT22;42608;52.776;6.968;2023-06-14T01:25:22;16.20;88.50
56725;DHT22;42608;52.776;6.968;2023-06-14T01:28:00;16.10;89.40
56725;DHT22;42608;52.776;6.968;2023-06-14T01:30:29;16.10;90.10
56725;DHT22;42608;52.776;6.968;2023-06-14T01:32:56;16.10;90.30
56725;DHT22;42608;52.776;6.968;2023-06-14T01:35:23;16.10;90.80
56725;DHT22;42608;52.776;6.968;2023-06-14T01:37:50;16.10;91.40
56725;DHT22;42608;52.776;6.968;2023-06-14T01:40:18;16.00;91.60
56725;DHT22;42608;52.776;6.968;2023-06-14T01:42:46;16.00;91.90
56725;DHT22;42608;52.776;6.968;2023-06-14T01:45:12;16.00;92.40
56725;DHT22;42608;52.776;6.968;2023-06-14T01:47:38;16.00;92.80
56725;DHT22;42608;52.776;6.968;2023-06-14T01:50:04;16.00;93.20
56725;DHT22;42608;52.776;6.968;2023-06-14T01:52:31;16.00;93.40
56725;DHT22;42608;52.776;6.968;2023-06-14T01:54:57;16.00;93.70
56725;DHT22;42608;52.776;6.968;2023-06-14T01:57:24;16.00;94.00
56725;DHT22;42608;52.776;6.968;2023-06-14T01:59:56;15.90;94.50
56725;DHT22;42608;52.776;6.968;2023-06-14T02:02:21;15.90;94.80
56725;DHT22;42608;52.776;6.968;2023-06-14T02:04:47;15.90;95.60
56725;DHT22;42608;52.776;6.968;2023-06-14T02:07:13;15.80;95.70
56725;DHT22;42608;52.776;6.968;2023-06-14T02:09:40;15.80;96.30
56725;DHT22;42608;52.776;6.968;2023-06-14T02:12:06;15.80;96.80
56725;DHT22;42608;52.776;6.968;2023-06-14T02:14:32;15.70;97.00
56725;DHT22;42608;52.776;6.968;2023-06-14T02:16:59;15.70;97.60
56725;DHT22;42608;52.776;6.968;2023-06-14T02:19:29;15.70;98.00
56725;DHT22;42608;52.776;6.968;2023-06-14T02:21:55;15.60;98.60
56725;DHT22;42608;52.776;6.968;2023-06-14T02:24:26;15.60;99.00
56725;DHT22;42608;52.776;6.968;2023-06-14T02:26:52;15.60;99.30
56725;DHT22;42608;52.776;6.968;2023-06-14T02:29:17;15.50;99.60
56725;DHT22;42608;52.776;6.968;2023-06-14T02:31:43;15.50;99.90
56725;DHT22;42608;52.776;6.968;2023-06-14T02:34:09;15.50;99.90
56725;DHT22;42608;52.776;6.968;2023-06-14T02:36:35;15.40;99.90
56725;DHT22;42608;52.776;6.968;2023-06-14T02:39:10;15.40;99.90
56725;DHT22;42608;52.776;6.968;2023-06-14T02:41:36;15.40;99.90
56725;DHT22;42608;52.776;6.968;2023-06-14T02:44:02;15.40;99.90
56725;DHT22;42608;52.776;6.968;2023-06-14T02:46:27;15.40;99.90
56725;DHT22;42608;52.776;6.968;2023-06-14T02:48:53;15.30;99.90
56725;DHT22;42608;52.776;6.968;2023-06-14T02:51:19;15.30;99.90
56725;DHT22;42608;52.776;6.968;2023-06-14T02:53:45;15.30;99.90
56725;DHT22;42608;52.776;6.968;2023-06-14T02:56:10;15.30;99.90
56725;DHT22;42608;52.776;6.968;2023-06-14T02:58:40;15.20;99.90
56725;DHT22;42608;52.776;6.968;2023-06-14T03:01:06;15.20;99.90
56725;DHT22;42608;52.776;6.968;2023-06-14T03:03:33;15.20;99.90
56725;DHT22;42608;52.776;6.968;2023-06-14T03:05:59;15.20;99.90
56725;DHT22;42608;52.776;6.968;2023-06-14T03:08:31;15.10;99.90
56725;DHT22;42608;52.776;6.968;2023-06-14T03:11:04;15.10;99.90
56725;DHT22;42608;52.776;6.968;2023-06-14T03:13:32;15.10;99.90
56725;DHT22;42608;52.776;6.968;2023-06-14T03:15:58;15.00;99.90
56725;DHT22;42608;52.776;6.968;2023-06-14T03:18:24;15.00;99.90
56725;DHT22;42608;52.776;6.968;2023-06-14T03:20:50;15.00;99.90
56725;DHT22;42608;52.776;6.968;2023-06-14T03:23:19;15.00;99.90
56725;DHT22;42608;52.776;6.968;2023-06-14T03:25:45;15.00;99.90
56725;DHT22;42608;52.776;6.968;2023-06-14T03:28:11;15.00;99.90
56725;DHT22;42608;52.776;6.968;2023-06-14T03:30:36;15.00;99.90
56725;DHT22;42608;52.776;6.968;2023-06-14T03:33:02;15.00;99.90
56725;DHT22;42608;52.776;6.968;2023-06-14T03:35:31;15.00;99.90
56725;DHT22;42608;52.776;6.968;2023-06-14T03:37:57;15.00;99.90
56725;DHT22;42608;52.776;6.968;2023-06-14T03:40:23;15.00;99.90
56725;DHT22;42608;52.776;6.968;2023-06-14T03:42:51;15.00;99.90
56725;DHT22;42608;52.776;6.968;2023-06-14T03:45:16;14.90;99.90
56725;DHT22;42608;52.776;6.968;2023-06-14T03:47:42;14.90;99.90
56725;DHT22;42608;52.776;6.968;2023-06-14T03:50:11;14.90;99.90
56725;DHT22;42608;52.776;6.968;2023-06-14T03:52:40;14.90;99.90
56725;DHT22;42608;52.776;6.968;2023-06-14T03:55:08;14.90;99.90
56725;DHT22;42608;52.776;6.968;2023-06-14T03:57:34;14.90;99.90
56725;DHT22;42608;52.776;6.968;2023-06-14T04:00:00;14.90;99.90
56725;DHT22;42608;52.776;6.968;2023-06-14T04:02:26;14.90;99.90
56725;DHT22;42608;52.776;6.968;2023-06-14T04:04:56;14.90;99.90
56725;DHT22;42608;52.776;6.968;2023-06-14T04:07:22;15.00;99.90
56725;DHT22;42608;52.776;6.968;2023-06-14T04:09:48;14.90;99.90
56725;DHT22;42608;52.776;6.968;2023-06-14T04:12:14;15.00;99.90
56725;DHT22;42608;52.776;6.968;2023-06-14T04:14:40;15.00;99.90
56725;DHT22;42608;52.776;6.968;2023-06-14T04:17:06;15.00;99.90
56725;DHT22;42608;52.776;6.968;2023-06-14T04:19:32;15.00;99.90
56725;DHT22;42608;52.776;6.968;2023-06-14T04:21:58;15.00;99.90
56725;DHT22;42608;52.776;6.968;2023-06-14T04:24:28;15.00;99.90
56725;DHT22;42608;52.776;6.968;2023-06-14T04:27:00;15.10;99.90
56725;DHT22;42608;52.776;6.968;2023-06-14T04:29:26;15.10;99.90
56725;DHT22;42608;52.776;6.968;2023-06-14T04:31:55;15.20;99.90
56725;DHT22;42608;52.776;6.968;2023-06-14T04:34:28;15.20;99.90
56725;DHT22;42608;52.776;6.968;2023-06-14T04:37:00;15.20;99.90
56725;DHT22;42608;52.776;6.968;2023-06-14T04:39:26;15.20;99.90
56725;DHT22;42608;52.776;6.968;2023-06-14T04:41:53;15.30;99.90
56725;DHT22;42608;52.776;6.968;2023-06-14T04:44:23;15.30;99.90
56725;DHT22;42608;52.776;6.968;2023-06-14T04:46:50;15.40;99.90
56725;DHT22;42608;52.776;6.968;2023-06-14T04:49:16;15.50;99.90
56725;DHT22;42608;52.776;6.968;2023-06-14T04:51:43;15.50;99.90
56725;DHT22;42608;52.776;6.968;2023-06-14T04:54:09;15.60;99.90
56725;DHT22;42608;52.776;6.968;2023-06-14T04:56:38;15.60;99.90
56725;DHT22;42608;52.776;6.968;2023-06-14T04:59:04;15.70;99.90
56725;DHT22;42608;52.776;6.968;2023-06-14T05:01:32;15.70;99.90
56725;DHT22;42608;52.776;6.968;2023-06-14T05:03:59;15.80;99.90
56725;DHT22;42608;52.776;6.968;2023-06-14T05:06:25;15.80;99.90
56725;DHT22;42608;52.776;6.968;2023-06-14T05:08:53;15.90;99.90
56725;DHT22;42608;52.776;6.968;2023-06-14T05:11:19;15.90;99.90
56725;DHT22;42608;52.776;6.968;2023-06-14T05:13:45;16.00;99.90
56725;DHT22;42608;52.776;6.968;2023-06-14T05:16:13;16.10;99.90
56725;DHT22;42608;52.776;6.968;2023-06-14T05:18:41;16.10;99.90
56725;DHT22;42608;52.776;6.968;2023-06-14T05:21:07;16.20;99.90
56725;DHT22;42608;52.776;6.968;2023-06-14T05:23:32;16.30;99.90
56725;DHT22;42608;52.776;6.968;2023-06-14T05:25:58;16.30;99.90
56725;DHT22;42608;52.776;6.968;2023-06-14T05:28:24;16.40;99.90
56725;DHT22;42608;52.776;6.968;2023-06-14T05:30:51;16.50;99.90
56725;DHT22;42608;52.776;6.968;2023-06-14T05:33:17;16.50;99.90
56725;DHT22;42608;52.776;6.968;2023-06-14T05:35:43;16.60;99.90
56725;DHT22;42608;52.776;6.968;2023-06-14T05:38:09;16.70;99.90
56725;DHT22;42608;52.776;6.968;2023-06-14T05:40:34;16.80;99.90
56725;DHT22;42608;52.776;6.968;2023-06-14T05:43:00;16.90;99.90
56725;DHT22;42608;52.776;6.968;2023-06-14T05:45:28;17.00;99.90
56725;DHT22;42608;52.776;6.968;2023-06-14T05:47:54;17.10;99.90
56725;DHT22;42608;52.776;6.968;2023-06-14T05:50:20;17.20;99.90
56725;DHT22;42608;52.776;6.968;2023-06-14T05:52:46;17.20;99.90
56725;DHT22;42608;52.776;6.968;2023-06-14T05:55:12;17.30;99.90
56725;DHT22;42608;52.776;6.968;2023-06-14T05:57:38;17.40;99.90
56725;DHT22;42608;52.776;6.968;2023-06-14T06:00:04;17.50;99.90
56725;DHT22;42608;52.776;6.968;2023-06-14T06:02:37;17.60;99.90
56725;DHT22;42608;52.776;6.968;2023-06-14T06:05:03;17.60;99.90
56725;DHT22;42608;52.776;6.968;2023-06-14T06:07:28;17.70;99.90
56725;DHT22;42608;52.776;6.968;2023-06-14T06:09:54;17.80;99.90
56725;DHT22;42608;52.776;6.968;2023-06-14T06:12:20;17.90;99.90
56725;DHT22;42608;52.776;6.968;2023-06-14T06:14:45;18.00;99.90
56725;DHT22;42608;52.776;6.968;2023-06-14T06:17:11;18.00;99.90
56725;DHT22;42608;52.776;6.968;2023-06-14T06:19:37;18.10;99.90
56725;DHT22;42608;52.776;6.968;2023-06-14T06:22:02;18.20;99.90
56725;DHT22;42608;52.776;6.968;2023-06-14T06:24:31;18.30;99.90
56725;DHT22;42608;52.776;6.968;2023-06-14T06:26:57;18.40;99.90
56725;DHT22;42608;52.776;6.968;2023-06-14T06:29:23;18.40;99.90
56725;DHT22;42608;52.776;6.968;2023-06-14T06:31:49;18.50;99.90
56725;DHT22;42608;52.776;6.968;2023-06-14T06:34:14;18.60;99.90
56725;DHT22;42608;52.776;6.968;2023-06-14T06:36:40;18.60;99.90
56725;DHT22;42608;52.776;6.968;2023-06-14T06:39:06;18.60;99.90
56725;DHT22;42608;52.776;6.968;2023-06-14T06:41:37;18.70;99.90
56725;DHT22;42608;52.776;6.968;2023-06-14T06:44:05;18.80;99.80
56725;DHT22;42608;52.776;6.968;2023-06-14T06:46:32;18.90;99.70
56725;DHT22;42608;52.776;6.968;2023-06-14T06:48:59;18.90;99.10
56725;DHT22;42608;52.776;6.968;2023-06-14T06:51:25;19.00;98.90
56725;DHT22;42608;52.776;6.968;2023-06-14T06:53:53;19.10;98.60
56725;DHT22;42608;52.776;6.968;2023-06-14T06:56:20;19.10;98.10
56725;DHT22;42608;52.776;6.968;2023-06-14T06:58:49;19.20;98.20
56725;DHT22;42608;52.776;6.968;2023-06-14T07:01:15;19.30;97.70
56725;DHT22;42608;52.776;6.968;2023-06-14T07:03:41;19.30;97.50
56725;DHT22;42608;52.776;6.968;2023-06-14T07:06:07;19.40;97.10
56725;DHT22;42608;52.776;6.968;2023-06-14T07:08:34;19.50;96.70
56725;DHT22;42608;52.776;6.968;2023-06-14T07:11:00;19.50;96.70
56725;DHT22;42608;52.776;6.968;2023-06-14T07:13:25;19.60;96.60
56725;DHT22;42608;52.776;6.968;2023-06-14T07:15:54;19.70;96.20
56725;DHT22;42608;52.776;6.968;2023-06-14T07:18:23;19.70;96.00
56725;DHT22;42608;52.776;6.968;2023-06-14T07:20:49;19.80;96.10
56725;DHT22;42608;52.776;6.968;2023-06-14T07:23:15;19.80;95.70
56725;DHT22;42608;52.776;6.968;2023-06-14T07:25:41;19.90;94.70
56725;DHT22;42608;52.776;6.968;2023-06-14T07:28:07;20.00;94.60
56725;DHT22;42608;52.776;6.968;2023-06-14T07:30:33;20.00;94.20
56725;DHT22;42608;52.776;6.968;2023-06-14T07:32:58;20.10;92.90
56725;DHT22;42608;52.776;6.968;2023-06-14T07:35:24;20.10;92.20
56725;DHT22;42608;52.776;6.968;2023-06-14T07:37:50;20.10;91.30
56725;DHT22;42608;52.776;6.968;2023-06-14T07:40:15;20.10;91.20
56725;DHT22;42608;52.776;6.968;2023-06-14T07:42:41;20.20;91.10
56725;DHT22;42608;52.776;6.968;2023-06-14T07:45:11;20.20;90.90
56725;DHT22;42608;52.776;6.968;2023-06-14T07:47:37;20.30;90.40
56725;DHT22;42608;52.776;6.968;2023-06-14T07:50:03;20.30;90.70
56725;DHT22;42608;52.776;6.968;2023-06-14T07:52:29;20.30;89.70
56725;DHT22;42608;52.776;6.968;2023-06-14T07:54:55;20.30;89.00
56725;DHT22;42608;52.776;6.968;2023-06-14T07:57:20;20.40;87.20
56725;DHT22;42608;52.776;6.968;2023-06-14T07:59:49;20.40;86.00
56725;DHT22;42608;52.776;6.968;2023-06-14T08:02:15;20.40;84.00
56725;DHT22;42608;52.776;6.968;2023-06-14T08:04:41;20.50;85.00
56725;DHT22;42608;52.776;6.968;2023-06-14T08:07:07;20.50;84.50
56725;DHT22;42608;52.776;6.968;2023-06-14T08:09:33;20.60;83.80
56725;DHT22;42608;52.776;6.968;2023-06-14T08:11:59;20.70;82.10
56725;DHT22;42608;52.776;6.968;2023-06-14T08:14:25;20.70;81.00
56725;DHT22;42608;52.776;6.968;2023-06-14T08:16:51;20.70;80.60
56725;DHT22;42608;52.776;6.968;2023-06-14T08:19:17;20.80;81.10
56725;DHT22;42608;52.776;6.968;2023-06-14T08:21:43;20.90;80.80
56725;DHT22;42608;52.776;6.968;2023-06-14T08:24:11;20.90;81.10
56725;DHT22;42608;52.776;6.968;2023-06-14T08:26:38;21.00;81.70
56725;DHT22;42608;52.776;6.968;2023-06-14T08:29:05;21.00;81.70
56725;DHT22;42608;52.776;6.968;2023-06-14T08:31:33;21.10;80.50
56725;DHT22;42608;52.776;6.968;2023-06-14T08:33:59;21.20;79.50
56725;DHT22;42608;52.776;6.968;2023-06-14T08:36:27;21.20;80.30
56725;DHT22;42608;52.776;6.968;2023-06-14T08:38:52;21.30;78.70
56725;DHT22;42608;52.776;6.968;2023-06-14T08:41:21;21.40;77.80
56725;DHT22;42608;52.776;6.968;2023-06-14T08:43:48;21.50;76.70
56725;DHT22;42608;52.776;6.968;2023-06-14T08:46:17;21.50;75.20
56725;DHT22;42608;52.776;6.968;2023-06-14T08:48:51;21.60;73.60
56725;DHT22;42608;52.776;6.968;2023-06-14T08:51:22;21.60;73.00
56725;DHT22;42608;52.776;6.968;2023-06-14T08:53:54;21.70;73.00
56725;DHT22;42608;52.776;6.968;2023-06-14T08:56:27;21.70;73.60
56725;DHT22;42608;52.776;6.968;2023-06-14T08:58:57;21.70;72.30
56725;DHT22;42608;52.776;6.968;2023-06-14T09:01:23;21.60;72.70
56725;DHT22;42608;52.776;6.968;2023-06-14T09:03:50;21.70;72.50
56725;DHT22;42608;52.776;6.968;2023-06-14T09:06:16;21.70;72.70
56725;DHT22;42608;52.776;6.968;2023-06-14T09:08:47;21.70;71.80
56725;DHT22;42608;52.776;6.968;2023-06-14T09:11:17;21.70;72.70
56725;DHT22;42608;52.776;6.968;2023-06-14T09:13:48;21.80;73.00
56725;DHT22;42608;52.776;6.968;2023-06-14T09:16:14;21.90;71.50
56725;DHT22;42608;52.776;6.968;2023-06-14T09:18:49;21.90;71.00
56725;DHT22;42608;52.776;6.968;2023-06-14T09:21:17;21.90;69.70
56725;DHT22;42608;52.776;6.968;2023-06-14T09:23:45;21.80;70.20
56725;DHT22;42608;52.776;6.968;2023-06-14T09:26:16;21.90;69.30
56725;DHT22;42608;52.776;6.968;2023-06-14T09:28:47;21.90;69.90
56725;DHT22;42608;52.776;6.968;2023-06-14T09:31:17;21.90;69.40
56725;DHT22;42608;52.776;6.968;2023-06-14T09:33:48;22.00;67.50
56725;DHT22;42608;52.776;6.968;2023-06-14T09:36:17;22.10;68.20
56725;DHT22;42608;52.776;6.968;2023-06-14T09:38:57;22.10;67.40
56725;DHT22;42608;52.776;6.968;2023-06-14T09:41:36;22.10;66.50
56725;DHT22;42608;52.776;6.968;2023-06-14T09:44:04;22.10;66.80
56725;DHT22;42608;52.776;6.968;2023-06-14T09:46:31;22.20;66.90
56725;DHT22;42608;52.776;6.968;2023-06-14T09:49:01;22.30;65.80
56725;DHT22;42608;52.776;6.968;2023-06-14T09:51:28;22.30;66.90
56725;DHT22;42608;52.776;6.968;2023-06-14T09:53:59;22.30;66.20
56725;DHT22;42608;52.776;6.968;2023-06-14T09:56:46;22.30;65.90
56725;DHT22;42608;52.776;6.968;2023-06-14T09:59:12;22.20;65.90
56725;DHT22;42608;52.776;6.968;2023-06-14T10:01:42;22.30;66.00
56725;DHT22;42608;52.776;6.968;2023-06-14T10:04:10;22.30;65.20
56725;DHT22;42608;52.776;6.968;2023-06-14T10:06:37;22.30;65.80
56725;DHT22;42608;52.776;6.968;2023-06-14T10:09:08;22.40;67.40
56725;DHT22;42608;52.776;6.968;2023-06-14T10:11:35;22.40;65.30
56725;DHT22;42608;52.776;6.968;2023-06-14T10:14:05;22.50;65.10
56725;DHT22;42608;52.776;6.968;2023-06-14T10:16:42;22.50;65.20
56725;DHT22;42608;52.776;6.968;2023-06-14T10:19:22;22.60;65.10
56725;DHT22;42608;52.776;6.968;2023-06-14T10:22:04;22.70;64.70
56725;DHT22;42608;52.776;6.968;2023-06-14T10:24:42;22.70;65.20
56725;DHT22;42608;52.776;6.968;2023-06-14T10:27:09;22.70;65.30
56725;DHT22;42608;52.776;6.968;2023-06-14T10:32:18;22.80;64.70
56725;DHT22;42608;52.776;6.968;2023-06-14T10:34:44;22.70;64.00
56725;DHT22;42608;52.776;6.968;2023-06-14T10:37:14;22.70;64.10
56725;DHT22;42608;52.776;6.968;2023-06-14T10:39:42;22.70;64.50
56725;DHT22;42608;52.776;6.968;2023-06-14T10:42:10;22.70;64.70
56725;DHT22;42608;52.776;6.968;2023-06-14T10:44:43;22.70;65.10
56725;DHT22;42608;52.776;6.968;2023-06-14T10:47:19;22.80;64.70
56725;DHT22;42608;52.776;6.968;2023-06-14T10:49:51;22.70;64.50
56725;DHT22;42608;52.776;6.968;2023-06-14T10:52:25;22.80;64.50
56725;DHT22;42608;52.776;6.968;2023-06-14T10:55:06;22.90;64.40
56725;DHT22;42608;52.776;6.968;2023-06-14T10:57:41;22.90;63.10
56725;DHT22;42608;52.776;6.968;2023-06-14T11:00:12;22.90;63.30
56725;DHT22;42608;52.776;6.968;2023-06-14T11:05:09;22.90;63.70
56725;DHT22;42608;52.776;6.968;2023-06-14T11:12:53;23.00;64.50
56725;DHT22;42608;52.776;6.968;2023-06-14T11:15:32;23.10;64.50
56725;DHT22;42608;52.776;6.968;2023-06-14T11:18:05;23.10;64.30
56725;DHT22;42608;52.776;6.968;2023-06-14T11:20:34;23.20;63.70
56725;DHT22;42608;52.776;6.968;2023-06-14T11:23:04;23.20;63.60
56725;DHT22;42608;52.776;6.968;2023-06-14T11:25:30;23.20;63.50
56725;DHT22;42608;52.776;6.968;2023-06-14T11:27:56;23.20;64.00
56725;DHT22;42608;52.776;6.968;2023-06-14T11:30:23;23.20;63.30
56725;DHT22;42608;52.776;6.968;2023-06-14T11:32:50;23.20;63.20
56725;DHT22;42608;52.776;6.968;2023-06-14T11:35:16;23.10;63.10
56725;DHT22;42608;52.776;6.968;2023-06-14T11:37:42;23.30;63.70
56725;DHT22;42608;52.776;6.968;2023-06-14T11:40:10;23.30;63.50
56725;DHT22;42608;52.776;6.968;2023-06-14T11:42:40;23.30;63.80
56725;DHT22;42608;52.776;6.968;2023-06-14T11:45:11;23.30;64.40
56725;DHT22;42608;52.776;6.968;2023-06-14T11:47:38;23.40;65.00
56725;DHT22;42608;52.776;6.968;2023-06-14T11:50:05;23.50;64.90
56725;DHT22;42608;52.776;6.968;2023-06-14T11:52:32;23.50;63.70
56725;DHT22;42608;52.776;6.968;2023-06-14T11:54:58;23.50;63.90
56725;DHT22;42608;52.776;6.968;2023-06-14T11:57:25;23.60;64.10
56725;DHT22;42608;52.776;6.968;2023-06-14T11:59:51;23.60;64.00
56725;DHT22;42608;52.776;6.968;2023-06-14T12:02:17;23.70;63.50
56725;DHT22;42608;52.776;6.968;2023-06-14T12:04:44;23.80;63.70
56725;DHT22;42608;52.776;6.968;2023-06-14T12:07:16;23.80;63.20
56725;DHT22;42608;52.776;6.968;2023-06-14T12:12:27;23.90;63.50
56725;DHT22;42608;52.776;6.968;2023-06-14T12:14:54;24.00;63.80
56725;DHT22;42608;52.776;6.968;2023-06-14T12:17:21;24.00;64.10
56725;DHT22;42608;52.776;6.968;2023-06-14T12:19:49;24.10;63.50
56725;DHT22;42608;52.776;6.968;2023-06-14T12:22:16;24.20;62.60
56725;DHT22;42608;52.776;6.968;2023-06-14T12:24:44;24.20;62.40
56725;DHT22;42608;52.776;6.968;2023-06-14T12:27:11;24.30;62.80
56725;DHT22;42608;52.776;6.968;2023-06-14T12:29:58;24.40;62.70
56725;DHT22;42608;52.776;6.968;2023-06-14T12:32:24;24.40;62.20
56725;DHT22;42608;52.776;6.968;2023-06-14T12:34:50;24.40;62.90
56725;DHT22;42608;52.776;6.968;2023-06-14T12:37:15;24.60;63.30
56725;DHT22;42608;52.776;6.968;2023-06-14T12:39:41;24.70;62.30
56725;DHT22;42608;52.776;6.968;2023-06-14T12:42:07;24.80;61.90
56725;DHT22;42608;52.776;6.968;2023-06-14T12:44:33;24.80;62.00
56725;DHT22;42608;52.776;6.968;2023-06-14T12:47:01;25.00;62.40
56725;DHT22;42608;52.776;6.968;2023-06-14T12:49:26;25.10;62.00
56725;DHT22;42608;52.776;6.968;2023-06-14T12:51:52;25.10;61.40
56725;DHT22;42608;52.776;6.968;2023-06-14T12:54:18;25.20;61.20
56725;DHT22;42608;52.776;6.968;2023-06-14T12:56:43;25.30;61.70
56725;DHT22;42608;52.776;6.968;2023-06-14T12:59:10;25.30;61.30
56725;DHT22;42608;52.776;6.968;2023-06-14T13:01:38;25.40;61.80
56725;DHT22;42608;52.776;6.968;2023-06-14T13:04:05;25.50;61.20
56725;DHT22;42608;52.776;6.968;2023-06-14T13:06:31;25.60;61.40
56725;DHT22;42608;52.776;6.968;2023-06-14T13:08:57;25.70;60.50
56725;DHT22;42608;52.776;6.968;2023-06-14T13:11:24;25.80;60.90
56725;DHT22;42608;52.776;6.968;2023-06-14T13:13:50;26.00;60.60
56725;DHT22;42608;52.776;6.968;2023-06-14T13:16:16;26.10;60.00
56725;DHT22;42608;52.776;6.968;2023-06-14T13:18:42;26.20;60.20
56725;DHT22;42608;52.776;6.968;2023-06-14T13:21:07;26.30;60.10
56725;DHT22;42608;52.776;6.968;2023-06-14T13:23:33;26.40;59.90
56725;DHT22;42608;52.776;6.968;2023-06-14T13:25:58;26.40;58.90
56725;DHT22;42608;52.776;6.968;2023-06-14T13:28:24;26.50;59.30
56725;DHT22;42608;52.776;6.968;2023-06-14T13:30:50;26.30;58.50
56725;DHT22;42608;52.776;6.968;2023-06-14T13:33:16;26.20;57.90
56725;DHT22;42608;52.776;6.968;2023-06-14T13:35:42;26.30;58.20
56725;DHT22;42608;52.776;6.968;2023-06-14T13:38:09;26.40;58.10
56725;DHT22;42608;52.776;6.968;2023-06-14T13:40:35;26.50;57.80
56725;DHT22;42608;52.776;6.968;2023-06-14T13:43:01;26.60;57.60
56725;DHT22;42608;52.776;6.968;2023-06-14T13:45:26;26.60;57.50
56725;DHT22;42608;52.776;6.968;2023-06-14T13:47:52;26.80;57.70
56725;DHT22;42608;52.776;6.968;2023-06-14T13:50:19;26.70;58.10
56725;DHT22;42608;52.776;6.968;2023-06-14T13:52:45;26.60;57.20
56725;DHT22;42608;52.776;6.968;2023-06-14T13:55:14;26.50;57.40
56725;DHT22;42608;52.776;6.968;2023-06-14T13:57:40;26.50;57.00
56725;DHT22;42608;52.776;6.968;2023-06-14T14:00:06;26.60;57.10
56725;DHT22;42608;52.776;6.968;2023-06-14T14:02:33;26.70;57.50
56725;DHT22;42608;52.776;6.968;2023-06-14T14:04:59;26.80;57.60
56725;DHT22;42608;52.776;6.968;2023-06-14T14:07:28;26.80;56.90
56725;DHT22;42608;52.776;6.968;2023-06-14T14:09:55;26.90;56.10
56725;DHT22;42608;52.776;6.968;2023-06-14T14:12:23;26.90;56.20
56725;DHT22;42608;52.776;6.968;2023-06-14T14:14:49;26.90;56.20
56725;DHT22;42608;52.776;6.968;2023-06-14T14:17:15;26.80;56.50
56725;DHT22;42608;52.776;6.968;2023-06-14T14:19:41;26.70;56.00
56725;DHT22;42608;52.776;6.968;2023-06-14T14:22:07;26.60;56.10
56725;DHT22;42608;52.776;6.968;2023-06-14T14:24:33;26.70;56.00
56725;DHT22;42608;52.776;6.968;2023-06-14T14:27:01;26.70;55.70
56725;DHT22;42608;52.776;6.968;2023-06-14T14:29:27;26.70;55.10
56725;DHT22;42608;52.776;6.968;2023-06-14T14:31:55;26.70;55.30
56725;DHT22;42608;52.776;6.968;2023-06-14T14:34:22;26.60;55.60
56725;DHT22;42608;52.776;6.968;2023-06-14T14:36:50;26.60;56.30
56725;DHT22;42608;52.776;6.968;2023-06-14T14:39:16;26.70;55.60
56725;DHT22;42608;52.776;6.968;2023-06-14T14:41:42;26.80;55.70
56725;DHT22;42608;52.776;6.968;2023-06-14T14:44:08;26.80;55.40
56725;DHT22;42608;52.776;6.968;2023-06-14T14:46:33;27.00;56.10
56725;DHT22;42608;52.776;6.968;2023-06-14T14:48:59;27.00;55.50
56725;DHT22;42608;52.776;6.968;2023-06-14T14:51:28;27.00;55.30
56725;DHT22;42608;52.776;6.968;2023-06-14T14:53:53;26.80;55.70
56725;DHT22;42608;52.776;6.968;2023-06-14T14:56:19;26.80;55.90
56725;DHT22;42608;52.776;6.968;2023-06-14T14:58:45;26.80;55.90
56725;DHT22;42608;52.776;6.968;2023-06-14T15:01:10;26.80;56.50
56725;DHT22;42608;52.776;6.968;2023-06-14T15:03:36;26.90;55.60
56725;DHT22;42608;52.776;6.968;2023-06-14T15:06:02;26.80;55.00
56725;DHT22;42608;52.776;6.968;2023-06-14T15:08:28;26.90;55.10
56725;DHT22;42608;52.776;6.968;2023-06-14T15:10:59;26.90;55.00
56725;DHT22;42608;52.776;6.968;2023-06-14T15:13:26;26.90;53.70
56725;DHT22;42608;52.776;6.968;2023-06-14T15:15:52;26.70;53.80
56725;DHT22;42608;52.776;6.968;2023-06-14T15:18:18;26.50;53.80
56725;DHT22;42608;52.776;6.968;2023-06-14T15:20:46;26.30;54.10
56725;DHT22;42608;52.776;6.968;2023-06-14T15:23:12;26.20;53.90
56725;DHT22;42608;52.776;6.968;2023-06-14T15:25:40;26.20;54.70
56725;DHT22;42608;52.776;6.968;2023-06-14T15:28:05;26.20;55.40
56725;DHT22;42608;52.776;6.968;2023-06-14T15:30:32;26.20;54.90
56725;DHT22;42608;52.776;6.968;2023-06-14T15:32:58;26.20;55.10
56725;DHT22;42608;52.776;6.968;2023-06-14T15:35:23;26.30;55.50
56725;DHT22;42608;52.776;6.968;2023-06-14T15:37:49;26.50;55.70
56725;DHT22;42608;52.776;6.968;2023-06-14T15:40:16;26.50;55.00
56725;DHT22;42608;52.776;6.968;2023-06-14T15:42:42;26.60;55.00
56725;DHT22;42608;52.776;6.968;2023-06-14T15:45:08;26.60;54.60
56725;DHT22;42608;52.776;6.968;2023-06-14T15:47:33;26.60;54.30
56725;DHT22;42608;52.776;6.968;2023-06-14T15:49:59;26.60;53.80
56725;DHT22;42608;52.776;6.968;2023-06-14T15:52:25;26.60;53.70